Time;durP1;ratioP1;P1;durP2;ratioP2;P2;SDS_P1;SDS_P2;PMS_P1;PMS_P2;Temp;Humidity;BMP_temperature;BMP_pressure;BME280_temperature;BME280_humidity;BME280_pressure;Samples;Min_cycle;Max_cycle;Signal;HPM_P1;HPM_P2
2023/05/30 00:02:19;;;;;;;;;5.25;5.25;;;;;15.83;52.31;101168.31;5071600;28;45317;-74
2023/05/30 00:04:44;;;;;;;;;4.00;4.00;;;;;15.94;52.47;101192.50;5071429;28;45307;-74
2023/05/30 00:07:10;;;;;;;;;5.25;5.25;;;;;15.91;52.14;101188.22;5071264;28;45252;-72
2023/05/30 00:09:35;;;;;;;;;5.75;5.75;;;;;15.89;52.25;101195.38;5070718;28;46279;-74
2023/05/30 00:12:00;;;;;;;;;4.50;4.50;;;;;15.91;52.27;101190.00;5069390;28;45341;-75
2023/05/30 00:14:26;;;;;;;;;5.50;5.50;;;;;15.87;52.13;101202.56;5070426;28;54248;-76
2023/05/30 00:16:52;;;;;;;;;5.25;5.25;;;;;15.89;52.24;101205.16;5071785;27;45451;-75
2023/05/30 00:19:19;;;;;;;;;3.00;3.00;;;;;15.86;52.19;101211.41;5071589;28;45319;-74
2023/05/30 00:21:45;;;;;;;;;7.00;7.00;;;;;15.83;52.07;101210.75;5062954;28;45450;-75
2023/05/30 00:24:11;;;;;;;;;5.50;5.50;;;;;15.81;51.81;101217.94;5058197;28;45437;-75
2023/05/30 00:26:37;;;;;;;;;6.75;6.75;;;;;15.74;51.95;101206.75;5058575;28;45232;-78
2023/05/30 00:29:03;;;;;;;;;5.00;5.00;;;;;15.73;52.07;101207.69;5059282;28;45210;-77
2023/05/30 00:31:30;;;;;;;;;5.25;5.25;;;;;15.69;52.04;101207.03;5057575;28;45342;-76
2023/05/30 00:33:55;;;;;;;;;4.00;4.00;;;;;15.66;52.10;101214.25;5058278;28;45322;-74
2023/05/30 00:36:20;;;;;;;;;7.25;7.25;;;;;15.66;51.99;101215.13;5058190;28;45425;-75
2023/05/30 00:38:46;;;;;;;;;6.00;6.00;;;;;15.57;51.87;101208.50;5056759;28;54356;-75
2023/05/30 00:41:11;;;;;;;;;6.50;6.50;;;;;15.61;52.06;101218.00;5057353;28;45302;-77
2023/05/30 00:43:37;;;;;;;;;7.50;6.75;;;;;15.60;52.05;101216.28;5055866;28;45368;-75
2023/05/30 00:46:04;;;;;;;;;8.00;8.00;;;;;15.53;52.10;101211.41;5057294;28;45516;-76
2023/05/30 00:48:29;;;;;;;;;5.25;5.25;;;;;15.54;52.49;101218.41;5057161;28;45749;-75
2023/05/30 00:50:55;;;;;;;;;5.50;5.50;;;;;15.54;52.18;101218.41;5057199;28;45376;-75
2023/05/30 00:53:21;;;;;;;;;6.00;6.00;;;;;15.53;52.51;101224.66;5057378;28;45198;-74
2023/05/30 00:55:48;;;;;;;;;7.25;7.25;;;;;15.45;52.25;101211.78;5057554;28;45254;-73
2023/05/30 00:58:14;;;;;;;;;6.25;6.25;;;;;15.45;52.53;101210.00;5056996;28;46335;-73
2023/05/30 01:00:39;;;;;;;;;5.00;4.75;;;;;15.52;52.84;101217.63;5055364;28;45212;-73
2023/05/30 01:03:07;;;;;;;;;5.00;5.00;;;;;15.46;52.96;101222.31;5056765;28;45348;-73
2023/05/30 01:05:32;;;;;;;;;5.00;5.00;;;;;15.47;53.02;101225.81;5057070;28;45397;-74
2023/05/30 01:07:58;;;;;;;;;4.50;4.50;;;;;15.39;53.27;101217.38;5056074;28;55447;-76
2023/05/30 01:10:23;;;;;;;;;8.50;7.00;;;;;15.42;53.36;101227.84;5057029;28;45500;-77
2023/05/30 01:13:22;;;;;;;;;7.75;7.75;;;;;15.44;53.35;101225.97;5056807;28;45492;-77
2023/05/30 01:16:03;;;;;;;;;6.00;6.00;;;;;15.38;53.84;101215.66;5056775;28;45517;-78
2023/05/30 01:18:43;;;;;;;;;7.00;7.00;;;;;15.34;53.66;101220.25;5057463;28;46518;-75
2023/05/30 01:21:11;;;;;;;;;8.25;8.00;;;;;15.32;53.93;101233.59;5056600;28;45216;-73
2023/05/30 01:23:45;;;;;;;;;8.25;8.25;;;;;15.32;53.92;101232.72;5056413;28;45378;-73
2023/05/30 01:26:16;;;;;;;;;6.00;6.00;;;;;15.25;54.04;101237.50;5056454;28;45450;-73
2023/05/30 01:28:44;;;;;;;;;7.00;7.00;;;;;15.09;54.12;101212.69;5056099;28;45542;-74
2023/05/30 01:31:10;;;;;;;;;7.00;6.50;;;;;15.18;54.32;101231.63;5071618;27;45979;-74
2023/05/30 01:33:36;;;;;;;;;5.50;5.50;;;;;15.20;54.33;101234.22;5055132;28;45320;-72
2023/05/30 01:36:02;;;;;;;;;7.50;7.25;;;;;15.17;54.37;101235.19;5056248;28;45413;-73
2023/05/30 01:38:28;;;;;;;;;6.00;5.75;;;;;15.11;54.66;101238.16;5056289;28;46486;-74
2023/05/30 01:40:56;;;;;;;;;8.00;7.75;;;;;15.04;54.90;101232.31;5055984;28;45373;-76
2023/05/30 01:43:40;;;;;;;;;5.50;5.50;;;;;15.06;54.81;101245.47;5056360;28;45340;-71
2023/05/30 01:46:20;;;;;;;;;7.00;7.00;;;;;14.98;54.77;101229.09;5056191;28;45262;-73
2023/05/30 01:49:03;;;;;;;;;7.00;7.00;;;;;14.96;55.23;101236.25;5055834;28;45430;-72
2023/05/30 01:51:36;;;;;;;;;6.25;6.25;;;;;14.92;55.31;101234.69;5054620;28;45378;-73
2023/05/30 01:54:04;;;;;;;;;6.00;6.00;;;;;14.85;55.34;101231.50;5056301;28;45296;-74
2023/05/30 01:56:31;;;;;;;;;5.00;5.00;;;;;14.81;55.58;101238.72;5056304;28;45429;-73
2023/05/30 01:58:59;;;;;;;;;6.75;6.75;;;;;14.73;55.70;101231.13;5056073;28;45303;-77
2023/05/30 02:01:28;;;;;;;;;6.00;6.00;;;;;14.73;56.01;101233.75;5055883;28;45323;-76
2023/05/30 02:03:54;;;;;;;;;5.25;5.25;;;;;14.73;55.88;101236.41;5055963;28;45304;-73
2023/05/30 02:06:19;;;;;;;;;7.00;7.00;;;;;14.72;55.96;101216.16;5055982;28;45300;-74
2023/05/30 02:08:44;;;;;;;;;7.00;7.00;;;;;14.72;56.22;101233.84;5071284;28;48430;-74
2023/05/30 02:11:10;;;;;;;;;6.00;6.00;;;;;14.65;56.13;101243.81;5055793;28;52182;-78
2023/05/30 02:13:36;;;;;;;;;5.25;5.25;;;;;14.65;56.44;101237.69;5059319;28;45354;-77
2023/05/30 02:16:01;;;;;;;;;7.50;7.50;;;;;14.61;56.73;101245.78;5060436;28;45547;-76
2023/05/30 02:18:27;;;;;;;;;7.50;7.50;;;;;14.54;56.65;101238.19;5058141;28;45424;-73
2023/05/30 02:20:55;;;;;;;;;6.50;6.50;;;;;14.46;56.60;101227.97;5055593;28;45406;-74
2023/05/30 02:23:21;;;;;;;;;8.50;8.50;;;;;14.52;56.26;101245.31;5055492;28;45430;-73
2023/05/30 02:25:46;;;;;;;;;8.75;8.75;;;;;14.45;56.91;101240.31;5055841;28;45715;-77
2023/05/30 02:28:12;;;;;;;;;7.75;7.00;;;;;14.46;57.24;101243.84;5055572;28;46240;-74
2023/05/30 02:30:38;;;;;;;;;6.50;6.50;;;;;14.44;57.36;101233.31;5055723;28;45345;-71
2023/05/30 02:33:03;;;;;;;;;7.00;7.00;;;;;14.35;57.40;101239.03;5055477;28;45316;-72
2023/05/30 02:35:28;;;;;;;;;5.00;5.00;;;;;14.32;57.40;101233.88;5056035;28;45190;-73
2023/05/30 02:37:54;;;;;;;;;11.25;10.00;;;;;14.27;57.68;101233.22;5055012;28;45437;-72
2023/05/30 02:40:19;;;;;;;;;6.00;6.00;;;;;14.24;57.79;101226.28;5054964;28;45337;-71
2023/05/30 02:42:45;;;;;;;;;6.00;6.00;;;;;14.12;58.24;101221.53;5055381;28;45903;-73
2023/05/30 02:45:10;;;;;;;;;7.25;6.50;;;;;14.13;58.04;101228.53;5054729;28;45394;-72
2023/05/30 02:47:35;;;;;;;;;5.25;5.25;;;;;14.10;57.98;101229.56;5070467;28;45938;-75
2023/05/30 02:50:01;;;;;;;;;5.75;5.00;;;;;14.10;58.14;101240.13;5055218;28;45370;-75
2023/05/30 02:52:26;;;;;;;;;7.50;7.50;;;;;14.03;58.15;101242.19;5055202;28;45362;-71
2023/05/30 02:54:51;;;;;;;;;6.25;6.25;;;;;13.98;58.49;101227.47;5055149;28;45422;-73
2023/05/30 02:57:19;;;;;;;;;7.00;7.00;;;;;13.96;58.66;101238.09;5053408;28;46854;-73
2023/05/30 02:59:44;;;;;;;;;7.25;7.25;;;;;13.82;58.58;101222.84;5054843;28;45600;-76
2023/05/30 03:02:10;;;;;;;;;3.00;3.00;;;;;13.94;58.26;101241.75;5055248;28;45241;-75
2023/05/30 03:04:36;;;;;;;;;5.75;5.75;;;;;13.95;58.49;101243.47;5053817;28;45255;-76
2023/05/30 03:07:02;;;;;;;;;6.25;6.00;;;;;13.95;58.84;101254.88;5054951;28;45603;-74
2023/05/30 03:09:28;;;;;;;;;7.25;6.50;;;;;13.88;58.60;101246.38;5054717;28;45362;-75
2023/05/30 03:11:53;;;;;;;;;7.50;7.50;;;;;13.88;58.70;101243.72;5054989;28;45414;-73
2023/05/30 03:14:18;;;;;;;;;8.00;8.00;;;;;13.85;58.52;101240.34;5055133;28;45435;-74
2023/05/30 03:16:44;;;;;;;;;4.50;4.50;;;;;13.84;58.55;101242.16;5054770;28;45349;-75
2023/05/30 03:19:09;;;;;;;;;6.00;6.00;;;;;13.82;58.81;101244.00;5054663;28;45371;-72
2023/05/30 03:21:36;;;;;;;;;7.00;6.00;;;;;13.81;58.83;101242.28;5055080;28;45496;-72
2023/05/30 03:24:02;;;;;;;;;8.00;8.00;;;;;13.77;58.37;101245.94;5055261;28;45527;-76
2023/05/30 03:26:27;;;;;;;;;7.75;7.75;;;;;13.72;58.98;101240.00;5054763;28;45570;-75
2023/05/30 03:28:53;;;;;;;;;7.50;6.75;;;;;13.69;59.14;101238.38;5054777;28;45475;-72
2023/05/30 03:31:18;;;;;;;;;6.50;6.50;;;;;13.69;58.95;101248.06;5054745;28;45429;-73
2023/05/30 03:33:44;;;;;;;;;8.00;8.00;;;;;13.62;58.79;101242.19;5055177;28;45547;-75
2023/05/30 03:36:10;;;;;;;;;8.00;8.00;;;;;13.59;58.75;101235.25;5054641;28;46369;-73
2023/05/30 03:38:36;;;;;;;;;5.00;5.00;;;;;13.51;59.07;101229.41;5071120;27;45223;-73
2023/05/30 03:41:01;;;;;;;;;5.75;5.75;;;;;13.64;59.05;101255.34;5055485;28;45489;-73
2023/05/30 03:43:27;;;;;;;;;6.00;6.00;;;;;13.40;59.36;101221.94;5054871;28;45568;-72
2023/05/30 03:45:52;;;;;;;;;5.25;5.25;;;;;13.56;59.00;101253.88;5054095;28;54209;-77
2023/05/30 03:48:17;;;;;;;;;5.50;5.50;;;;;13.53;59.02;101258.44;5053317;28;45252;-76
2023/05/30 03:50:43;;;;;;;;;5.75;5.75;;;;;13.56;58.89;101263.59;5054332;28;45291;-78
2023/05/30 03:53:08;;;;;;;;;5.50;5.25;;;;;13.40;59.13;101240.44;5055349;28;45378;-72
2023/05/30 03:55:33;;;;;;;;;10.00;7.75;;;;;13.51;58.84;101263.78;5054588;28;45348;-73
2023/05/30 03:57:59;;;;;;;;;6.25;5.50;;;;;13.49;59.14;101268.28;5058312;28;45281;-79
2023/05/30 04:00:24;;;;;;;;;4.75;4.75;;;;;13.48;59.25;101266.56;5062749;28;45367;-77
2023/05/30 04:02:49;;;;;;;;;4.50;4.50;;;;;13.46;59.30;101259.63;5063708;28;45606;-76
2023/05/30 04:05:15;;;;;;;;;8.00;8.00;;;;;13.46;59.39;101263.13;5059383;28;46161;-75
2023/05/30 04:07:41;;;;;;;;;4.50;4.50;;;;;13.47;59.51;101264.00;5058088;28;45409;-75
2023/05/30 04:10:06;;;;;;;;;5.50;5.50;;;;;13.42;59.06;101267.69;5057904;28;45307;-74
2023/05/30 04:12:32;;;;;;;;;4.50;4.50;;;;;13.41;59.48;101267.69;5057885;28;45362;-74
2023/05/30 04:14:57;;;;;;;;;6.75;6.00;;;;;13.33;59.37;101249.53;5057542;28;45450;-73
2023/05/30 04:17:22;;;;;;;;;5.00;5.00;;;;;13.37;59.29;101258.19;5057034;28;56007;-72
2023/05/30 04:19:48;;;;;;;;;4.75;4.50;;;;;13.33;59.55;101257.47;5057578;28;45296;-72
2023/05/30 04:22:13;;;;;;;;;6.00;6.00;;;;;13.38;59.32;101271.34;5057868;28;45467;-76
2023/05/30 04:24:39;;;;;;;;;7.25;7.25;;;;;13.26;59.42;101256.84;5057612;28;46514;-72
2023/05/30 04:27:05;;;;;;;;;10.50;8.50;;;;;13.33;59.19;101261.88;5057777;28;45443;-73
2023/05/30 04:29:30;;;;;;;;;5.75;5.75;;;;;13.40;59.13;101285.34;5057610;28;45402;-71
2023/05/30 04:31:56;;;;;;;;;6.50;6.50;;;;;13.35;58.78;101273.25;5058168;28;45239;-74
2023/05/30 04:34:22;;;;;;;;;6.00;6.00;;;;;13.37;59.35;101281.97;5057490;28;45336;-73
2023/05/30 04:36:48;;;;;;;;;6.25;6.25;;;;;13.34;59.24;101287.38;5057392;28;45292;-74
2023/05/30 04:39:13;;;;;;;;;6.00;5.75;;;;;13.34;59.42;101292.66;5057480;28;45516;-77
2023/05/30 04:41:40;;;;;;;;;4.00;4.00;;;;;13.32;59.14;101303.31;5058080;28;45203;-77
2023/05/30 04:44:06;;;;;;;;;3.00;3.00;;;;;13.30;59.02;101303.34;5056307;28;47827;-75
2023/05/30 04:46:32;;;;;;;;;5.25;5.25;;;;;13.30;59.41;101302.50;5056971;28;45338;-73
2023/05/30 04:49:00;;;;;;;;;5.75;5.75;;;;;13.25;58.81;101296.50;5055775;28;45451;-72
2023/05/30 04:51:27;;;;;;;;;6.75;6.75;;;;;13.35;59.21;101311.09;5055597;28;45517;-75
2023/05/30 04:53:53;;;;;;;;;5.00;5.00;;;;;13.26;58.76;101299.09;5056825;28;45296;-75
2023/05/30 04:56:22;;;;;;;;;3.00;3.00;;;;;13.41;58.87;101309.97;5056797;28;45268;-74
2023/05/30 04:58:48;;;;;;;;;4.25;4.25;;;;;13.47;58.70;101319.50;5057303;28;45394;-72
2023/05/30 05:01:15;;;;;;;;;3.50;3.50;;;;;13.48;59.36;101302.72;5057370;28;45392;-75
2023/05/30 05:03:41;;;;;;;;;4.00;4.00;;;;;13.58;58.88;101302.25;5057049;28;45350;-76
2023/05/30 05:06:07;;;;;;;;;7.00;7.00;;;;;13.65;58.74;101310.81;5056735;28;45368;-77
2023/05/30 05:08:33;;;;;;;;;5.50;5.50;;;;;13.66;58.35;101309.00;5056739;28;45256;-78
2023/05/30 05:11:03;;;;;;;;;6.00;6.00;;;;;13.64;58.37;101295.00;5057204;28;45358;-73
2023/05/30 05:13:29;;;;;;;;;6.00;6.00;;;;;13.83;58.11;101314.47;5056857;28;45409;-71
2023/05/30 05:15:55;;;;;;;;;6.75;6.75;;;;;13.88;57.96;101303.69;5056653;28;45332;-74
2023/05/30 05:18:21;;;;;;;;;5.25;5.25;;;;;14.01;58.01;101309.31;5056672;28;45310;-74
2023/05/30 05:20:46;;;;;;;;;6.00;6.00;;;;;14.06;57.69;101309.97;5056497;28;45203;-76
2023/05/30 05:23:11;;;;;;;;;5.50;5.50;;;;;14.19;57.08;101320.88;5056647;28;45467;-73
2023/05/30 05:25:37;;;;;;;;;5.75;5.75;;;;;14.28;57.29;101324.91;5056352;28;45309;-76
2023/05/30 05:28:02;;;;;;;;;5.00;5.00;;;;;14.35;57.45;101309.63;5056079;28;53731;-78
2023/05/30 05:30:27;;;;;;;;;6.75;6.75;;;;;14.50;56.96;101327.47;5056754;28;45613;-76
2023/05/30 05:32:53;;;;;;;;;5.75;5.75;;;;;14.55;56.63;101321.97;5056685;28;45491;-78
2023/05/30 05:35:18;;;;;;;;;6.00;6.00;;;;;14.58;56.47;101316.53;5056675;28;45313;-71
2023/05/30 05:37:44;;;;;;;;;6.00;6.00;;;;;14.59;56.11;101318.25;5056296;28;45330;-72
2023/05/30 05:40:10;;;;;;;;;6.00;6.00;;;;;14.58;56.09;101312.09;5056482;28;45185;-74
2023/05/30 05:42:36;;;;;;;;;5.00;5.00;;;;;14.70;56.00;101323.09;5055832;28;46235;-77
2023/05/30 05:45:01;;;;;;;;;7.25;7.25;;;;;14.79;55.68;101327.09;5057001;28;45425;-76
2023/05/30 05:47:27;;;;;;;;;7.25;7.25;;;;;14.85;55.57;101322.38;5073123;28;45334;-77
2023/05/30 05:49:52;;;;;;;;;5.50;5.50;;;;;14.89;55.70;101321.31;5058287;28;45270;-79
2023/05/30 05:52:19;;;;;;;;;7.50;7.50;;;;;14.97;55.52;101328.91;5055946;28;45509;-74
2023/05/30 05:54:45;;;;;;;;;8.75;8.00;;;;;14.92;54.97;101322.09;5055760;28;45383;-73
2023/05/30 05:57:10;;;;;;;;;8.00;8.00;;;;;14.80;54.81;101324.38;5071569;28;45287;-74
2023/05/30 05:59:35;;;;;;;;;9.00;7.75;;;;;14.82;55.21;101333.13;5056500;28;45280;-77
2023/05/30 06:02:01;;;;;;;;;8.00;8.00;;;;;14.78;54.93;101326.25;5055808;28;46579;-76
2023/05/30 06:04:26;;;;;;;;;10.75;10.00;;;;;14.80;55.40;101332.34;5054267;28;45453;-76
2023/05/30 06:06:51;;;;;;;;;5.25;5.25;;;;;14.75;55.10;101332.53;5054580;28;45303;-73
2023/05/30 06:09:17;;;;;;;;;7.75;7.75;;;;;14.58;55.17;101316.53;5055810;28;46096;-73
2023/05/30 06:11:42;;;;;;;;;8.00;7.00;;;;;14.61;55.39;101335.78;5055576;28;46596;-79
2023/05/30 06:14:07;;;;;;;;;6.00;6.00;;;;;14.50;55.30;101326.59;5055578;28;45242;-78
2023/05/30 06:16:33;;;;;;;;;5.00;5.00;;;;;14.46;55.41;101344.44;5055548;28;45328;-77
2023/05/30 06:18:58;;;;;;;;;5.75;5.75;;;;;14.38;55.46;101334.16;5054919;28;45335;-71
2023/05/30 06:21:24;;;;;;;;;4.50;4.50;;;;;14.41;55.68;101344.63;5055003;28;46219;-72
2023/05/30 06:23:49;;;;;;;;;9.00;7.75;;;;;14.39;55.77;101335.88;5055257;28;45386;-76
2023/05/30 06:26:14;;;;;;;;;6.50;6.50;;;;;14.46;55.49;101339.13;5053866;28;45764;-74
2023/05/30 06:28:40;;;;;;;;;6.75;6.75;;;;;14.49;55.71;101344.28;5055272;28;45197;-74
2023/05/30 06:31:05;;;;;;;;;9.75;9.75;;;;;14.48;55.76;101339.03;5054900;28;46328;-74
2023/05/30 06:33:30;;;;;;;;;8.25;8.25;;;;;14.49;55.62;101340.75;5055099;28;45401;-72
2023/05/30 06:35:56;;;;;;;;;10.25;10.25;;;;;14.46;55.49;101331.19;5055127;28;45323;-71
2023/05/30 06:38:23;;;;;;;;;6.00;6.00;;;;;14.48;55.58;101337.28;5055566;28;45415;-72
2023/05/30 06:40:49;;;;;;;;;8.00;8.00;;;;;14.50;55.39;101331.91;5054864;28;46431;-72
2023/05/30 06:43:15;;;;;;;;;7.00;7.00;;;;;14.56;55.16;101336.91;5055500;28;45307;-74
2023/05/30 06:45:40;;;;;;;;;7.00;7.00;;;;;14.59;55.81;101329.72;5055960;28;45356;-73
2023/05/30 06:48:06;;;;;;;;;6.75;6.00;;;;;14.61;55.08;101327.84;5055346;28;45213;-76
2023/05/30 06:50:31;;;;;;;;;6.50;6.50;;;;;14.61;55.43;101334.91;5053294;28;47120;-74
2023/05/30 06:52:56;;;;;;;;;8.00;8.00;;;;;14.71;55.52;101346.84;5055244;28;45232;-73
2023/05/30 06:55:22;;;;;;;;;6.00;6.00;;;;;14.79;54.88;101340.34;5054725;28;45177;-75
2023/05/30 06:57:53;;;;;;;;;9.50;7.00;;;;;14.80;54.89;101337.63;5058147;28;45228;-73
2023/05/30 07:00:19;;;;;;;;;5.25;5.00;;;;;14.84;54.62;101341.84;5071539;28;47492;-77
2023/05/30 07:02:45;;;;;;;;;5.00;4.25;;;;;14.71;54.70;101319.53;5055349;28;45275;-72
2023/05/30 07:05:11;;;;;;;;;7.75;7.75;;;;;14.81;54.25;101349.06;5053482;28;45253;-73
2023/05/30 07:07:39;;;;;;;;;4.75;4.75;;;;;14.84;54.46;101348.94;5055531;28;45350;-73
2023/05/30 07:10:06;;;;;;;;;6.50;6.00;;;;;14.90;54.29;101360.13;5054620;28;45371;-75
2023/05/30 07:12:31;;;;;;;;;6.50;6.50;;;;;14.88;54.30;101346.09;5054598;28;45467;-75
2023/05/30 07:14:57;;;;;;;;;4.25;4.25;;;;;14.95;54.25;101357.28;5071204;27;45527;-76
2023/05/30 07:17:22;;;;;;;;;7.00;7.00;;;;;14.95;54.34;101341.38;5055436;28;45567;-77
2023/05/30 07:19:48;;;;;;;;;6.00;6.00;;;;;15.00;54.32;101347.31;5055060;28;46045;-78
2023/05/30 07:22:13;;;;;;;;;5.75;5.75;;;;;15.06;54.00;101340.00;5055004;28;45272;-76
2023/05/30 07:24:39;;;;;;;;;7.25;7.25;;;;;15.16;53.81;101341.28;5053336;28;45450;-76
2023/05/30 07:27:04;;;;;;;;;7.75;7.75;;;;;15.26;54.02;101354.94;5053153;28;45298;-71
2023/05/30 07:29:30;;;;;;;;;6.25;6.25;;;;;15.29;54.04;101344.19;5055580;28;47064;-76
2023/05/30 07:31:55;;;;;;;;;8.50;7.00;;;;;15.39;53.45;101342.84;5058946;28;45371;-76
2023/05/30 07:34:20;;;;;;;;;6.75;6.75;;;;;15.48;53.71;101360.09;5060546;28;45266;-74
2023/05/30 07:36:46;;;;;;;;;5.25;5.25;;;;;15.51;53.28;101353.78;5059655;28;45232;-76
2023/05/30 07:39:11;;;;;;;;;5.00;5.00;;;;;15.52;53.05;101350.22;5057812;28;45228;-72
2023/05/30 07:41:36;;;;;;;;;6.25;6.25;;;;;15.57;52.94;101346.38;5056037;28;45353;-74
2023/05/30 07:44:02;;;;;;;;;6.25;6.25;;;;;15.61;53.28;101345.28;5057894;28;45223;-75
2023/05/30 07:46:27;;;;;;;;;6.25;6.25;;;;;15.63;53.08;101345.22;5058085;28;45647;-75
2023/05/30 07:48:52;;;;;;;;;5.50;5.50;;;;;15.75;53.47;101354.34;5057662;28;57076;-76
2023/05/30 07:51:20;;;;;;;;;7.50;7.50;;;;;15.82;53.27;101352.28;5058348;28;45329;-75
2023/05/30 07:53:45;;;;;;;;;6.50;6.50;;;;;15.93;53.10;101365.88;5057758;28;45281;-78
2023/05/30 07:56:10;;;;;;;;;7.75;7.75;;;;;16.00;52.67;101362.00;5057944;28;45477;-75
2023/05/30 07:58:36;;;;;;;;;7.00;7.00;;;;;16.05;52.67;101359.97;5058418;28;46331;-75
2023/05/30 08:01:01;;;;;;;;;6.50;6.50;;;;;16.10;52.62;101357.09;5057658;28;45356;-76
2023/05/30 08:03:26;;;;;;;;;7.00;7.00;;;;;16.19;52.61;101361.91;5057451;28;45375;-76
2023/05/30 08:05:52;;;;;;;;;9.50;8.50;;;;;16.29;52.34;101362.28;5057561;28;45336;-73
2023/05/30 08:08:18;;;;;;;;;5.25;5.25;;;;;16.35;52.63;101354.00;5057794;28;45623;-74
2023/05/30 08:10:43;;;;;;;;;5.75;5.75;;;;;16.47;52.08;101371.09;5056874;28;45363;-75
2023/05/30 08:13:08;;;;;;;;;8.75;8.75;;;;;16.49;52.33;101363.91;5057230;28;45375;-71
2023/05/30 08:15:34;;;;;;;;;5.75;5.75;;;;;16.64;51.99;101372.00;5057458;28;45349;-77
2023/05/30 08:18:00;;;;;;;;;6.00;6.00;;;;;16.72;51.81;101359.16;5056908;28;45451;-77
2023/05/30 08:20:26;;;;;;;;;8.00;8.00;;;;;16.83;51.68;101371.88;5056724;28;45470;-79
2023/05/30 08:22:52;;;;;;;;;6.75;6.00;;;;;16.92;51.50;101379.34;5056900;28;45183;-77
2023/05/30 08:25:23;;;;;;;;;6.50;6.50;;;;;16.99;51.36;101376.38;5056871;28;45261;-80
2023/05/30 08:27:49;;;;;;;;;5.00;5.00;;;;;17.13;50.91;101372.97;5057321;28;46411;-77
2023/05/30 08:30:15;;;;;;;;;6.00;6.00;;;;;17.17;50.96;101367.41;5057044;28;45362;-78
2023/05/30 08:32:40;;;;;;;;;8.75;6.75;;;;;17.27;51.32;101367.75;5056936;28;45477;-76
2023/05/30 08:35:07;;;;;;;;;8.25;8.25;;;;;17.27;50.84;101358.91;5057154;28;45500;-76
2023/05/30 08:37:32;;;;;;;;;5.00;5.00;;;;;17.43;50.60;101372.19;5056320;28;46490;-77
2023/05/30 08:39:58;;;;;;;;;6.00;6.00;;;;;17.53;50.44;101381.38;5054559;28;45193;-73
2023/05/30 08:42:23;;;;;;;;;6.50;6.50;;;;;17.50;50.33;101365.59;5056149;28;45342;-74
2023/05/30 08:44:48;;;;;;;;;8.25;8.25;;;;;17.54;50.27;101369.78;5056595;28;45626;-75
2023/05/30 08:47:16;;;;;;;;;7.75;6.75;;;;;17.58;50.03;101374.00;5056303;28;49005;-77
2023/05/30 08:49:43;;;;;;;;;6.00;6.00;;;;;17.64;50.28;101381.63;5056684;28;45406;-76
2023/05/30 08:52:13;;;;;;;;;8.75;8.75;;;;;17.70;50.23;101361.78;5056662;28;45331;-79
2023/05/30 08:55:07;;;;;;;;;6.00;6.00;;;;;17.80;50.00;101368.28;5072504;27;45517;-76
2023/05/30 08:57:43;;;;;;;;;6.75;6.75;;;;;17.67;49.99;101336.22;5056239;28;45538;-79
2023/05/30 09:00:11;;;;;;;;;8.00;8.00;;;;;17.99;50.15;101350.38;5071689;27;45277;-79
2023/05/30 09:02:37;;;;;;;;;8.00;8.00;;;;;18.00;49.71;101344.09;5056471;28;45380;-77
2023/05/30 09:05:04;;;;;;;;;7.25;7.25;;;;;17.96;49.54;101330.97;5056591;28;45339;-72
2023/05/30 09:07:31;;;;;;;;;7.75;7.75;;;;;18.15;49.89;101356.56;5055959;28;47075;-74
2023/05/30 09:09:58;;;;;;;;;9.00;9.00;;;;;18.25;49.34;101360.38;5071601;28;45371;-75
2023/05/30 09:12:25;;;;;;;;;5.75;5.75;;;;;18.35;49.52;101351.81;5056709;28;45214;-76
2023/05/30 09:14:50;;;;;;;;;6.75;6.75;;;;;18.39;49.43;101353.34;5056659;28;45181;-73
2023/05/30 09:17:17;;;;;;;;;8.75;8.75;;;;;18.49;49.07;101348.28;5058300;28;46162;-72
2023/05/30 09:19:45;;;;;;;;;9.50;8.00;;;;;18.56;49.21;101343.47;5060425;28;45425;-73
2023/05/30 09:22:10;;;;;;;;;6.00;6.00;;;;;18.64;49.16;101338.50;5059520;28;45268;-75
2023/05/30 09:24:58;;;;;;;;;6.00;6.00;;;;;18.67;48.29;101339.19;5058315;28;45239;-77
2023/05/30 09:27:24;;;;;;;;;9.25;9.25;;;;;18.65;48.45;101345.53;5056429;28;45351;-73
2023/05/30 09:29:49;;;;;;;;;8.50;8.50;;;;;18.64;47.97;101349.16;5055608;28;45192;-73
2023/05/30 09:32:15;;;;;;;;;8.50;7.50;;;;;18.66;48.25;101339.25;5055774;28;45331;-72
2023/05/30 09:34:51;;;;;;;;;7.25;7.25;;;;;18.70;48.51;101343.44;5054460;28;45340;-76
2023/05/30 09:37:16;;;;;;;;;10.00;10.00;;;;;18.83;48.35;101348.88;5056613;28;45354;-73
2023/05/30 09:39:42;;;;;;;;;8.50;8.50;;;;;18.84;47.92;101323.94;5056010;28;45329;-75
2023/05/30 09:42:08;;;;;;;;;4.00;4.00;;;;;18.93;47.84;101335.81;5071606;27;45379;-74
2023/05/30 09:44:33;;;;;;;;;6.75;6.25;;;;;19.04;48.01;101338.66;5054718;28;45487;-79
2023/05/30 09:46:59;;;;;;;;;15.00;14.50;;;;;19.17;47.55;101352.09;5055491;28;46218;-75
2023/05/30 09:49:27;;;;;;;;;6.50;6.50;;;;;19.16;47.67;101325.53;5055783;28;45319;-74
2023/05/30 09:51:53;;;;;;;;;6.25;6.25;;;;;19.21;47.62;101344.75;5055289;28;45239;-78
2023/05/30 09:54:19;;;;;;;;;6.00;6.00;;;;;19.25;47.17;101338.28;5054822;28;45840;-76
2023/05/30 09:56:44;;;;;;;;;8.25;8.25;;;;;19.31;47.53;101343.19;5070760;27;46033;-74
2023/05/30 09:59:13;;;;;;;;;4.00;4.00;;;;;19.29;47.06;101339.78;5055659;28;45437;-78
2023/05/30 10:01:41;;;;;;;;;1.00;0.25;;;;;19.39;47.26;101343.56;5055855;28;45429;-72
2023/05/30 10:04:21;;;;;;;;;5.50;5.50;;;;;19.47;46.53;101344.88;5056784;28;45370;-78
2023/05/30 10:06:52;;;;;;;;;9.00;8.25;;;;;19.55;46.86;101345.22;5055754;28;45398;-77
2023/05/30 10:09:22;;;;;;;;;6.00;6.00;;;;;19.63;46.63;101348.22;5055171;28;45350;-76
2023/05/30 10:11:48;;;;;;;;;18.75;18.25;;;;;19.67;46.04;101336.38;5055111;28;45326;-78
2023/05/30 10:14:13;;;;;;;;;12.75;11.75;;;;;19.69;45.93;101344.31;5071275;28;45336;-78
2023/05/30 10:16:53;;;;;;;;;9.25;7.00;;;;;19.82;46.58;101349.66;5054902;28;45428;-77
2023/05/30 10:19:25;;;;;;;;;6.50;6.50;;;;;19.83;45.68;101338.88;5054891;28;45398;-78
2023/05/30 10:21:54;;;;;;;;;6.75;6.50;;;;;19.85;46.40;101336.97;5055463;28;45319;-76
2023/05/30 10:24:20;;;;;;;;;7.25;6.50;;;;;19.94;46.66;101343.53;5055662;28;45209;-76
2023/05/30 10:26:55;;;;;;;;;6.75;6.75;;;;;19.99;45.92;101346.72;5056321;28;45778;-77
2023/05/30 10:29:24;;;;;;;;;5.50;5.50;;;;;19.98;45.39;101336.16;5070175;27;45283;-77
2023/05/30 10:31:53;;;;;;;;;6.25;6.25;;;;;20.00;46.16;101345.78;5055108;28;45389;-78
2023/05/30 10:34:25;;;;;;;;;4.75;4.75;;;;;20.09;46.20;101346.09;5053854;28;45264;-79
2023/05/30 10:36:53;;;;;;;;;7.50;7.50;;;;;20.16;45.48;101349.22;5053409;28;47171;-80
2023/05/30 10:39:37;;;;;;;;;7.50;7.50;;;;;20.18;45.80;101339.28;5055300;28;45410;-77
2023/05/30 10:42:21;;;;;;;;;5.25;5.25;;;;;20.20;45.48;101340.03;5055062;28;45315;-77
2023/05/30 10:45:04;;;;;;;;;9.25;8.50;;;;;20.16;45.58;101319.84;5055823;28;45317;-78
2023/05/30 10:47:47;;;;;;;;;16.00;16.00;;;;;20.33;45.56;101329.38;5055835;28;45421;-74
2023/05/30 10:50:19;;;;;;;;;7.25;7.00;;;;;20.41;45.06;101329.69;5055379;28;45547;-79
2023/05/30 10:52:46;;;;;;;;;6.00;3.25;;;;;20.48;44.97;101335.44;5055907;28;45325;-80
2023/05/30 10:55:11;;;;;;;;;4.50;4.50;;;;;20.54;45.01;101325.19;5055335;28;45474;-79
2023/05/30 10:57:37;;;;;;;;;14.25;14.25;;;;;20.65;45.19;101327.06;5053903;28;46096;-77
2023/05/30 11:00:21;;;;;;;;;23.75;22.00;;;;;20.74;44.56;101320.22;5054851;28;45895;-74
2023/05/30 11:02:54;;;;;;;;;7.00;7.00;;;;;20.79;43.71;101325.28;5058670;28;45415;-75
2023/05/30 11:05:26;;;;;;;;;8.25;8.25;;;;;20.70;43.84;101311.59;5037696;28;45285;-83
2023/05/30 11:07:51;;;;;;;;;15.75;15.75;;;;;20.73;44.11;101318.50;5040469;28;47053;-78
2023/05/30 11:10:24;;;;;;;;;15.00;15.00;;;;;20.80;43.65;101322.50;5044149;28;45502;-75
2023/05/30 11:12:51;;;;;;;;;8.75;8.50;;;;;20.86;43.31;101319.38;5057667;27;45309;-70
2023/05/30 11:15:29;;;;;;;;;7.50;7.50;;;;;20.92;43.68;101303.84;5054944;28;45509;-74
2023/05/30 11:17:55;;;;;;;;;25.00;24.75;;;;;20.98;43.69;101303.41;5054340;28;46776;-71
2023/05/30 11:20:22;;;;;;;;;4.00;4.00;;;;;21.02;43.29;101303.06;5055931;28;45465;-77
2023/05/30 11:23:03;;;;;;;;;6.75;6.75;;;;;21.16;42.84;101309.22;5057504;28;45310;-80
2023/05/30 11:25:32;;;;;;;;;10.25;10.25;;;;;21.20;42.82;101299.13;5053644;28;45418;-78